sensor_id;sensor_type;location;lat;lon;timestamp;temperature;humidity
20041;DHT22;10181;48.072;9.884;2023-06-04T00:00:31;12.40;99.90
20041;DHT22;10181;48.072;9.884;2023-06-04T00:02:56;12.20;99.90
20041;DHT22;10181;48.072;9.884;2023-06-04T00:05:22;12.20;99.90
20041;DHT22;10181;48.072;9.884;2023-06-04T00:07:51;12.00;99.90
20041;DHT22;10181;48.072;9.884;2023-06-04T00:10:17;11.90;99.90
20041;DHT22;10181;48.072;9.884;2023-06-04T00:12:42;11.80;99.90
20041;DHT22;10181;48.072;9.884;2023-06-04T00:15:08;11.80;99.90
20041;DHT22;10181;48.072;9.884;2023-06-04T00:17:34;11.80;99.90
20041;DHT22;10181;48.072;9.884;2023-06-04T00:20:00;11.70;99.90
20041;DHT22;10181;48.072;9.884;2023-06-04T00:22:25;11.60;99.90
20041;DHT22;10181;48.072;9.884;2023-06-04T00:24:51;11.60;99.90
20041;DHT22;10181;48.072;9.884;2023-06-04T00:27:16;11.60;99.90
20041;DHT22;10181;48.072;9.884;2023-06-04T00:29:43;11.60;99.90
20041;DHT22;10181;48.072;9.884;2023-06-04T00:32:08;11.50;99.90
20041;DHT22;10181;48.072;9.884;2023-06-04T00:34:34;11.50;99.90
20041;DHT22;10181;48.072;9.884;2023-06-04T00:37:00;11.40;99.90
20041;DHT22;10181;48.072;9.884;2023-06-04T00:39:26;11.40;99.90
20041;DHT22;10181;48.072;9.884;2023-06-04T00:41:52;11.40;99.90
20041;DHT22;10181;48.072;9.884;2023-06-04T00:44:18;11.40;99.90
20041;DHT22;10181;48.072;9.884;2023-06-04T00:46:44;11.40;99.90
20041;DHT22;10181;48.072;9.884;2023-06-04T00:49:11;11.50;99.90
20041;DHT22;10181;48.072;9.884;2023-06-04T00:51:37;11.50;99.90
20041;DHT22;10181;48.072;9.884;2023-06-04T00:54:04;11.50;99.90
20041;DHT22;10181;48.072;9.884;2023-06-04T00:56:35;11.50;99.90
20041;DHT22;10181;48.072;9.884;2023-06-04T00:59:03;11.50;99.90
20041;DHT22;10181;48.072;9.884;2023-06-04T01:01:37;11.50;99.90
20041;DHT22;10181;48.072;9.884;2023-06-04T01:04:09;11.50;99.90
20041;DHT22;10181;48.072;9.884;2023-06-04T01:06:44;11.50;99.90
20041;DHT22;10181;48.072;9.884;2023-06-04T01:09:11;11.50;99.90
20041;DHT22;10181;48.072;9.884;2023-06-04T01:11:38;11.50;99.90
20041;DHT22;10181;48.072;9.884;2023-06-04T01:14:05;11.50;99.90
20041;DHT22;10181;48.072;9.884;2023-06-04T01:16:43;11.50;99.90
20041;DHT22;10181;48.072;9.884;2023-06-04T01:22:29;11.40;99.90
20041;DHT22;10181;48.072;9.884;2023-06-04T01:25:01;11.40;99.90
20041;DHT22;10181;48.072;9.884;2023-06-04T01:27:28;11.40;99.90
20041;DHT22;10181;48.072;9.884;2023-06-04T01:29:54;11.30;99.90
20041;DHT22;10181;48.072;9.884;2023-06-04T01:32:23;11.40;99.90
20041;DHT22;10181;48.072;9.884;2023-06-04T01:34:49;11.30;99.90
20041;DHT22;10181;48.072;9.884;2023-06-04T01:37:14;11.30;99.90
20041;DHT22;10181;48.072;9.884;2023-06-04T01:39:42;11.30;99.90
20041;DHT22;10181;48.072;9.884;2023-06-04T01:42:08;11.30;99.90
20041;DHT22;10181;48.072;9.884;2023-06-04T01:44:34;11.30;99.90
20041;DHT22;10181;48.072;9.884;2023-06-04T01:46:59;11.30;99.90
20041;DHT22;10181;48.072;9.884;2023-06-04T01:49:25;11.30;99.90
20041;DHT22;10181;48.072;9.884;2023-06-04T01:51:51;11.30;99.90
20041;DHT22;10181;48.072;9.884;2023-06-04T01:54:16;11.30;99.90
20041;DHT22;10181;48.072;9.884;2023-06-04T01:56:43;11.30;99.90
20041;DHT22;10181;48.072;9.884;2023-06-04T01:59:09;11.30;99.90
20041;DHT22;10181;48.072;9.884;2023-06-04T02:01:37;11.30;99.90
20041;DHT22;10181;48.072;9.884;2023-06-04T02:04:03;11.20;99.90
20041;DHT22;10181;48.072;9.884;2023-06-04T02:06:29;11.20;99.90
20041;DHT22;10181;48.072;9.884;2023-06-04T02:08:55;11.20;99.90
20041;DHT22;10181;48.072;9.884;2023-06-04T02:11:21;11.10;99.90
20041;DHT22;10181;48.072;9.884;2023-06-04T02:13:47;11.10;99.90
20041;DHT22;10181;48.072;9.884;2023-06-04T02:16:13;11.10;99.90
20041;DHT22;10181;48.072;9.884;2023-06-04T02:18:38;11.10;99.90
20041;DHT22;10181;48.072;9.884;2023-06-04T02:21:04;11.00;99.90
20041;DHT22;10181;48.072;9.884;2023-06-04T02:23:30;11.00;99.90
20041;DHT22;10181;48.072;9.884;2023-06-04T02:25:55;11.00;99.90
20041;DHT22;10181;48.072;9.884;2023-06-04T02:28:21;11.00;99.90
20041;DHT22;10181;48.072;9.884;2023-06-04T02:30:47;11.00;99.90
20041;DHT22;10181;48.072;9.884;2023-06-04T02:33:13;11.00;99.90
20041;DHT22;10181;48.072;9.884;2023-06-04T02:35:39;11.00;99.90
20041;DHT22;10181;48.072;9.884;2023-06-04T02:38:05;11.00;99.90
20041;DHT22;10181;48.072;9.884;2023-06-04T02:40:30;10.90;99.90
20041;DHT22;10181;48.072;9.884;2023-06-04T02:42:56;10.90;99.90
20041;DHT22;10181;48.072;9.884;2023-06-04T02:45:25;10.90;99.90
20041;DHT22;10181;48.072;9.884;2023-06-04T02:47:51;10.90;99.90
20041;DHT22;10181;48.072;9.884;2023-06-04T02:50:16;10.80;99.90
20041;DHT22;10181;48.072;9.884;2023-06-04T02:52:42;10.80;99.90
20041;DHT22;10181;48.072;9.884;2023-06-04T02:55:09;10.70;99.90
20041;DHT22;10181;48.072;9.884;2023-06-04T02:57:35;10.70;99.90
20041;DHT22;10181;48.072;9.884;2023-06-04T03:00:01;10.70;99.90
20041;DHT22;10181;48.072;9.884;2023-06-04T03:02:27;10.60;99.90
20041;DHT22;10181;48.072;9.884;2023-06-04T03:04:53;10.60;99.90
20041;DHT22;10181;48.072;9.884;2023-06-04T03:07:20;10.60;99.90
20041;DHT22;10181;48.072;9.884;2023-06-04T03:09:48;10.60;99.90
20041;DHT22;10181;48.072;9.884;2023-06-04T03:12:14;10.60;99.90
20041;DHT22;10181;48.072;9.884;2023-06-04T03:14:40;10.50;99.90
20041;DHT22;10181;48.072;9.884;2023-06-04T03:17:05;10.50;99.90
20041;DHT22;10181;48.072;9.884;2023-06-04T03:19:36;10.50;99.90
20041;DHT22;10181;48.072;9.884;2023-06-04T03:22:03;10.50;99.90
20041;DHT22;10181;48.072;9.884;2023-06-04T03:24:33;10.50;99.90
20041;DHT22;10181;48.072;9.884;2023-06-04T03:27:00;10.40;99.90
20041;DHT22;10181;48.072;9.884;2023-06-04T03:29:26;10.40;99.90
20041;DHT22;10181;48.072;9.884;2023-06-04T03:31:52;10.40;99.90
20041;DHT22;10181;48.072;9.884;2023-06-04T03:34:17;10.40;99.90
20041;DHT22;10181;48.072;9.884;2023-06-04T03:36:43;10.40;99.90
20041;DHT22;10181;48.072;9.884;2023-06-04T03:39:09;10.40;99.90
20041;DHT22;10181;48.072;9.884;2023-06-04T03:41:34;10.40;99.90
20041;DHT22;10181;48.072;9.884;2023-06-04T03:44:00;10.40;99.90
20041;DHT22;10181;48.072;9.884;2023-06-04T03:46:25;10.40;99.90
20041;DHT22;10181;48.072;9.884;2023-06-04T03:48:54;10.40;99.90
20041;DHT22;10181;48.072;9.884;2023-06-04T03:51:20;10.40;99.90
20041;DHT22;10181;48.072;9.884;2023-06-04T03:53:45;10.30;99.90
20041;DHT22;10181;48.072;9.884;2023-06-04T03:56:11;10.30;99.90
20041;DHT22;10181;48.072;9.884;2023-06-04T03:58:36;10.30;99.90
20041;DHT22;10181;48.072;9.884;2023-06-04T04:01:02;10.30;99.90
20041;DHT22;10181;48.072;9.884;2023-06-04T04:03:30;10.30;99.90
20041;DHT22;10181;48.072;9.884;2023-06-04T04:05:57;10.30;99.90
20041;DHT22;10181;48.072;9.884;2023-06-04T04:08:23;10.30;99.90
20041;DHT22;10181;48.072;9.884;2023-06-04T04:10:49;10.30;99.90
20041;DHT22;10181;48.072;9.884;2023-06-04T04:13:15;10.30;99.90
20041;DHT22;10181;48.072;9.884;2023-06-04T04:15:41;10.30;99.90
20041;DHT22;10181;48.072;9.884;2023-06-04T04:18:06;10.40;99.90
20041;DHT22;10181;48.072;9.884;2023-06-04T04:20:33;10.40;99.90
20041;DHT22;10181;48.072;9.884;2023-06-04T04:22:59;10.50;99.90
20041;DHT22;10181;48.072;9.884;2023-06-04T04:25:25;10.50;99.90
20041;DHT22;10181;48.072;9.884;2023-06-04T04:27:52;10.60;99.90
20041;DHT22;10181;48.072;9.884;2023-06-04T04:30:17;10.60;99.90
20041;DHT22;10181;48.072;9.884;2023-06-04T04:32:44;10.70;99.90
20041;DHT22;10181;48.072;9.884;2023-06-04T04:35:14;10.70;99.90
20041;DHT22;10181;48.072;9.884;2023-06-04T04:37:44;10.80;99.90
20041;DHT22;10181;48.072;9.884;2023-06-04T04:40:10;10.90;99.90
20041;DHT22;10181;48.072;9.884;2023-06-04T04:42:37;11.10;99.90
20041;DHT22;10181;48.072;9.884;2023-06-04T04:45:03;11.10;99.90
20041;DHT22;10181;48.072;9.884;2023-06-04T04:47:29;11.20;99.90
20041;DHT22;10181;48.072;9.884;2023-06-04T04:49:54;11.30;99.90
20041;DHT22;10181;48.072;9.884;2023-06-04T04:52:20;11.40;99.90
20041;DHT22;10181;48.072;9.884;2023-06-04T04:54:45;11.60;99.90
20041;DHT22;10181;48.072;9.884;2023-06-04T04:57:11;11.70;99.90
20041;DHT22;10181;48.072;9.884;2023-06-04T04:59:36;11.80;99.90
20041;DHT22;10181;48.072;9.884;2023-06-04T05:02:02;11.90;99.90
20041;DHT22;10181;48.072;9.884;2023-06-04T05:04:28;11.90;99.90
20041;DHT22;10181;48.072;9.884;2023-06-04T05:06:53;12.00;99.90
20041;DHT22;10181;48.072;9.884;2023-06-04T05:09:19;12.00;99.90
20041;DHT22;10181;48.072;9.884;2023-06-04T05:11:44;12.10;99.90
20041;DHT22;10181;48.072;9.884;2023-06-04T05:14:11;12.20;99.90
20041;DHT22;10181;48.072;9.884;2023-06-04T05:16:37;12.30;99.90
20041;DHT22;10181;48.072;9.884;2023-06-04T05:19:04;12.40;99.90
20041;DHT22;10181;48.072;9.884;2023-06-04T05:21:29;12.50;99.90
20041;DHT22;10181;48.072;9.884;2023-06-04T05:23:55;12.50;99.90
20041;DHT22;10181;48.072;9.884;2023-06-04T05:26:21;12.60;99.90
20041;DHT22;10181;48.072;9.884;2023-06-04T05:28:51;12.60;99.90
20041;DHT22;10181;48.072;9.884;2023-06-04T05:31:16;12.70;99.90
20041;DHT22;10181;48.072;9.884;2023-06-04T05:33:43;12.70;99.90
20041;DHT22;10181;48.072;9.884;2023-06-04T05:36:09;12.70;99.90
20041;DHT22;10181;48.072;9.884;2023-06-04T05:38:35;12.80;99.90
20041;DHT22;10181;48.072;9.884;2023-06-04T05:41:01;12.90;99.90
20041;DHT22;10181;48.072;9.884;2023-06-04T05:43:27;13.10;99.90
20041;DHT22;10181;48.072;9.884;2023-06-04T05:45:53;13.20;99.90
20041;DHT22;10181;48.072;9.884;2023-06-04T05:48:18;13.30;99.90
20041;DHT22;10181;48.072;9.884;2023-06-04T05:50:44;13.40;99.90
20041;DHT22;10181;48.072;9.884;2023-06-04T05:53:10;13.40;99.90
20041;DHT22;10181;48.072;9.884;2023-06-04T05:55:36;13.60;99.90
20041;DHT22;10181;48.072;9.884;2023-06-04T05:58:01;13.60;99.90
20041;DHT22;10181;48.072;9.884;2023-06-04T06:00:27;13.70;99.90
20041;DHT22;10181;48.072;9.884;2023-06-04T06:02:53;13.80;99.90
20041;DHT22;10181;48.072;9.884;2023-06-04T06:05:19;13.90;99.90
20041;DHT22;10181;48.072;9.884;2023-06-04T06:07:45;13.90;99.90
20041;DHT22;10181;48.072;9.884;2023-06-04T06:10:11;14.10;99.90
20041;DHT22;10181;48.072;9.884;2023-06-04T06:12:37;14.20;99.90
20041;DHT22;10181;48.072;9.884;2023-06-04T06:15:03;14.20;99.90
20041;DHT22;10181;48.072;9.884;2023-06-04T06:17:29;14.30;99.90
20041;DHT22;10181;48.072;9.884;2023-06-04T06:19:55;14.40;99.90
20041;DHT22;10181;48.072;9.884;2023-06-04T06:22:21;14.50;99.90
20041;DHT22;10181;48.072;9.884;2023-06-04T06:24:47;14.50;99.90
20041;DHT22;10181;48.072;9.884;2023-06-04T06:27:16;14.60;99.90
20041;DHT22;10181;48.072;9.884;2023-06-04T06:29:43;14.60;99.90
20041;DHT22;10181;48.072;9.884;2023-06-04T06:32:10;14.80;99.90
20041;DHT22;10181;48.072;9.884;2023-06-04T06:34:35;14.90;99.90
20041;DHT22;10181;48.072;9.884;2023-06-04T06:37:02;15.00;99.90
20041;DHT22;10181;48.072;9.884;2023-06-04T06:39:28;15.10;99.90
20041;DHT22;10181;48.072;9.884;2023-06-04T06:41:53;15.20;99.90
20041;DHT22;10181;48.072;9.884;2023-06-04T06:44:19;15.20;99.90
20041;DHT22;10181;48.072;9.884;2023-06-04T06:46:45;15.20;99.90
20041;DHT22;10181;48.072;9.884;2023-06-04T06:49:10;15.30;99.90
20041;DHT22;10181;48.072;9.884;2023-06-04T06:51:36;15.40;99.90
20041;DHT22;10181;48.072;9.884;2023-06-04T06:54:01;15.50;99.90
20041;DHT22;10181;48.072;9.884;2023-06-04T06:56:27;15.60;99.90
20041;DHT22;10181;48.072;9.884;2023-06-04T06:58:52;15.80;99.90
20041;DHT22;10181;48.072;9.884;2023-06-04T07:01:18;15.90;99.90
20041;DHT22;10181;48.072;9.884;2023-06-04T07:03:44;15.90;99.90
20041;DHT22;10181;48.072;9.884;2023-06-04T07:06:09;16.00;99.90
20041;DHT22;10181;48.072;9.884;2023-06-04T07:08:35;16.10;99.90
20041;DHT22;10181;48.072;9.884;2023-06-04T07:11:02;16.20;99.90
20041;DHT22;10181;48.072;9.884;2023-06-04T07:13:28;16.30;99.90
20041;DHT22;10181;48.072;9.884;2023-06-04T07:15:54;16.40;99.90
20041;DHT22;10181;48.072;9.884;2023-06-04T07:18:20;16.40;99.90
20041;DHT22;10181;48.072;9.884;2023-06-04T07:20:45;16.50;99.90
20041;DHT22;10181;48.072;9.884;2023-06-04T07:23:11;16.60;99.90
20041;DHT22;10181;48.072;9.884;2023-06-04T07:25:36;16.70;99.90
20041;DHT22;10181;48.072;9.884;2023-06-04T07:28:02;16.70;99.90
20041;DHT22;10181;48.072;9.884;2023-06-04T07:30:30;16.80;99.90
20041;DHT22;10181;48.072;9.884;2023-06-04T07:32:57;16.80;99.90
20041;DHT22;10181;48.072;9.884;2023-06-04T07:35:23;17.00;99.90
20041;DHT22;10181;48.072;9.884;2023-06-04T07:37:49;17.00;99.90
20041;DHT22;10181;48.072;9.884;2023-06-04T07:40:15;17.10;99.90
20041;DHT22;10181;48.072;9.884;2023-06-04T07:42:42;17.20;99.90
20041;DHT22;10181;48.072;9.884;2023-06-04T07:45:09;17.20;99.90
20041;DHT22;10181;48.072;9.884;2023-06-04T07:47:36;17.40;99.90
20041;DHT22;10181;48.072;9.884;2023-06-04T07:50:02;17.50;99.90
20041;DHT22;10181;48.072;9.884;2023-06-04T07:52:28;17.60;99.90
20041;DHT22;10181;48.072;9.884;2023-06-04T07:54:54;17.60;99.90
20041;DHT22;10181;48.072;9.884;2023-06-04T07:57:19;17.70;99.90
20041;DHT22;10181;48.072;9.884;2023-06-04T07:59:45;17.70;99.90
20041;DHT22;10181;48.072;9.884;2023-06-04T08:02:10;17.80;99.90
20041;DHT22;10181;48.072;9.884;2023-06-04T08:04:36;17.90;99.90
20041;DHT22;10181;48.072;9.884;2023-06-04T08:07:02;17.90;99.90
20041;DHT22;10181;48.072;9.884;2023-06-04T08:09:27;18.00;99.90
20041;DHT22;10181;48.072;9.884;2023-06-04T08:11:53;18.00;99.90
20041;DHT22;10181;48.072;9.884;2023-06-04T08:14:19;18.00;99.90
20041;DHT22;10181;48.072;9.884;2023-06-04T08:16:47;18.10;99.90
20041;DHT22;10181;48.072;9.884;2023-06-04T08:19:12;18.10;99.90
20041;DHT22;10181;48.072;9.884;2023-06-04T08:21:39;18.20;99.90
20041;DHT22;10181;48.072;9.884;2023-06-04T08:24:06;18.30;99.90
20041;DHT22;10181;48.072;9.884;2023-06-04T08:26:31;18.40;99.90
20041;DHT22;10181;48.072;9.884;2023-06-04T08:28:58;18.50;99.90
20041;DHT22;10181;48.072;9.884;2023-06-04T08:31:23;18.50;99.90
20041;DHT22;10181;48.072;9.884;2023-06-04T08:33:49;18.60;99.90
20041;DHT22;10181;48.072;9.884;2023-06-04T08:36:15;18.60;99.90
20041;DHT22;10181;48.072;9.884;2023-06-04T08:38:41;18.70;99.90
20041;DHT22;10181;48.072;9.884;2023-06-04T08:41:17;18.80;99.90
20041;DHT22;10181;48.072;9.884;2023-06-04T08:43:43;18.90;99.90
20041;DHT22;10181;48.072;9.884;2023-06-04T08:46:12;19.00;99.90
20041;DHT22;10181;48.072;9.884;2023-06-04T08:48:38;19.00;99.90
20041;DHT22;10181;48.072;9.884;2023-06-04T08:51:06;19.00;99.90
20041;DHT22;10181;48.072;9.884;2023-06-04T08:53:34;19.00;99.90
20041;DHT22;10181;48.072;9.884;2023-06-04T08:56:01;19.10;99.90
20041;DHT22;10181;48.072;9.884;2023-06-04T08:58:31;19.20;99.90
20041;DHT22;10181;48.072;9.884;2023-06-04T09:00:58;19.20;99.90
20041;DHT22;10181;48.072;9.884;2023-06-04T09:03:24;19.30;99.90
20041;DHT22;10181;48.072;9.884;2023-06-04T09:05:52;19.40;99.90
20041;DHT22;10181;48.072;9.884;2023-06-04T09:08:19;19.50;99.90
20041;DHT22;10181;48.072;9.884;2023-06-04T09:10:49;19.50;99.90
20041;DHT22;10181;48.072;9.884;2023-06-04T09:13:18;19.60;99.90
20041;DHT22;10181;48.072;9.884;2023-06-04T09:15:44;19.60;99.90
20041;DHT22;10181;48.072;9.884;2023-06-04T09:18:12;19.70;99.90
20041;DHT22;10181;48.072;9.884;2023-06-04T09:20:37;19.80;99.90
20041;DHT22;10181;48.072;9.884;2023-06-04T09:23:13;19.90;99.90
20041;DHT22;10181;48.072;9.884;2023-06-04T09:25:42;20.00;99.90
20041;DHT22;10181;48.072;9.884;2023-06-04T09:28:09;20.00;99.90
20041;DHT22;10181;48.072;9.884;2023-06-04T09:30:34;20.10;99.90
20041;DHT22;10181;48.072;9.884;2023-06-04T09:33:08;20.10;99.90
20041;DHT22;10181;48.072;9.884;2023-06-04T09:35:33;20.20;99.90
20041;DHT22;10181;48.072;9.884;2023-06-04T09:37:59;20.20;99.90
20041;DHT22;10181;48.072;9.884;2023-06-04T09:40:34;20.30;99.90
20041;DHT22;10181;48.072;9.884;2023-06-04T09:43:00;20.30;99.90
20041;DHT22;10181;48.072;9.884;2023-06-04T09:45:29;20.30;99.90
20041;DHT22;10181;48.072;9.884;2023-06-04T09:47:55;20.40;99.90
20041;DHT22;10181;48.072;9.884;2023-06-04T09:50:31;20.40;99.90
20041;DHT22;10181;48.072;9.884;2023-06-04T09:52:59;20.40;99.90
20041;DHT22;10181;48.072;9.884;2023-06-04T09:55:25;20.50;99.90
20041;DHT22;10181;48.072;9.884;2023-06-04T09:57:52;20.50;99.90
20041;DHT22;10181;48.072;9.884;2023-06-04T10:00:20;20.60;99.90
20041;DHT22;10181;48.072;9.884;2023-06-04T10:02:46;20.70;99.90
20041;DHT22;10181;48.072;9.884;2023-06-04T10:05:13;20.80;99.90
20041;DHT22;10181;48.072;9.884;2023-06-04T10:07:44;20.90;99.90
20041;DHT22;10181;48.072;9.884;2023-06-04T10:10:17;20.90;99.90
20041;DHT22;10181;48.072;9.884;2023-06-04T10:12:50;21.00;99.90
20041;DHT22;10181;48.072;9.884;2023-06-04T10:15:17;21.00;99.90
20041;DHT22;10181;48.072;9.884;2023-06-04T10:17:43;21.10;99.90
20041;DHT22;10181;48.072;9.884;2023-06-04T10:20:09;21.10;99.90
20041;DHT22;10181;48.072;9.884;2023-06-04T10:22:37;21.20;99.90
20041;DHT22;10181;48.072;9.884;2023-06-04T10:25:03;21.20;99.90
20041;DHT22;10181;48.072;9.884;2023-06-04T10:27:32;21.10;99.90
20041;DHT22;10181;48.072;9.884;2023-06-04T10:30:01;21.10;99.90
20041;DHT22;10181;48.072;9.884;2023-06-04T10:32:29;21.10;99.90
20041;DHT22;10181;48.072;9.884;2023-06-04T10:34:55;21.10;99.90
20041;DHT22;10181;48.072;9.884;2023-06-04T10:37:26;21.20;99.90
20041;DHT22;10181;48.072;9.884;2023-06-04T10:39:56;21.20;99.90
20041;DHT22;10181;48.072;9.884;2023-06-04T10:42:22;21.20;99.90
20041;DHT22;10181;48.072;9.884;2023-06-04T10:44:50;21.20;99.90
20041;DHT22;10181;48.072;9.884;2023-06-04T10:49:46;21.20;99.90
20041;DHT22;10181;48.072;9.884;2023-06-04T10:52:11;21.10;99.90
20041;DHT22;10181;48.072;9.884;2023-06-04T10:54:37;21.10;99.90
20041;DHT22;10181;48.072;9.884;2023-06-04T10:57:13;21.10;99.90
20041;DHT22;10181;48.072;9.884;2023-06-04T10:59:39;21.30;99.90
20041;DHT22;10181;48.072;9.884;2023-06-04T11:02:06;21.40;99.90
20041;DHT22;10181;48.072;9.884;2023-06-04T11:04:32;21.50;99.90
20041;DHT22;10181;48.072;9.884;2023-06-04T11:07:02;21.50;99.90
20041;DHT22;10181;48.072;9.884;2023-06-04T11:09:29;21.60;99.90
20041;DHT22;10181;48.072;9.884;2023-06-04T11:11:58;21.60;99.90
20041;DHT22;10181;48.072;9.884;2023-06-04T11:14:24;21.60;99.90
20041;DHT22;10181;48.072;9.884;2023-06-04T11:16:50;21.60;99.90
20041;DHT22;10181;48.072;9.884;2023-06-04T11:19:15;21.50;97.40
20041;DHT22;10181;48.072;9.884;2023-06-04T11:21:41;21.50;99.00
20041;DHT22;10181;48.072;9.884;2023-06-04T11:24:07;21.50;99.90
20041;DHT22;10181;48.072;9.884;2023-06-04T11:26:34;21.50;99.90
20041;DHT22;10181;48.072;9.884;2023-06-04T11:29:01;21.40;96.30
20041;DHT22;10181;48.072;9.884;2023-06-04T11:31:27;21.40;98.00
20041;DHT22;10181;48.072;9.884;2023-06-04T11:33:52;21.40;98.40
20041;DHT22;10181;48.072;9.884;2023-06-04T11:36:29;21.60;99.90
20041;DHT22;10181;48.072;9.884;2023-06-04T11:38:58;21.70;99.90
20041;DHT22;10181;48.072;9.884;2023-06-04T11:41:27;21.80;99.90
20041;DHT22;10181;48.072;9.884;2023-06-04T11:43:55;21.90;99.90
20041;DHT22;10181;48.072;9.884;2023-06-04T11:46:21;22.00;99.50
20041;DHT22;10181;48.072;9.884;2023-06-04T11:48:47;22.00;93.20
20041;DHT22;10181;48.072;9.884;2023-06-04T11:51:15;21.90;99.30
20041;DHT22;10181;48.072;9.884;2023-06-04T11:53:41;21.90;99.30
20041;DHT22;10181;48.072;9.884;2023-06-04T11:56:07;21.90;98.80
20041;DHT22;10181;48.072;9.884;2023-06-04T11:58:33;22.00;98.50
20041;DHT22;10181;48.072;9.884;2023-06-04T12:00:59;22.00;99.90
20041;DHT22;10181;48.072;9.884;2023-06-04T12:03:39;22.10;97.60
20041;DHT22;10181;48.072;9.884;2023-06-04T12:08:47;22.30;99.20
20041;DHT22;10181;48.072;9.884;2023-06-04T12:11:29;22.40;97.00
20041;DHT22;10181;48.072;9.884;2023-06-04T12:13:58;22.50;97.60
20041;DHT22;10181;48.072;9.884;2023-06-04T12:16:24;22.20;98.70
20041;DHT22;10181;48.072;9.884;2023-06-04T12:18:51;22.00;99.30
20041;DHT22;10181;48.072;9.884;2023-06-04T12:21:26;21.90;97.80
20041;DHT22;10181;48.072;9.884;2023-06-04T12:24:11;21.90;94.70
20041;DHT22;10181;48.072;9.884;2023-06-04T12:26:39;22.00;98.90
20041;DHT22;10181;48.072;9.884;2023-06-04T12:29:16;22.00;98.40
20041;DHT22;10181;48.072;9.884;2023-06-04T12:31:44;22.10;98.70
20041;DHT22;10181;48.072;9.884;2023-06-04T12:34:11;22.20;93.70
20041;DHT22;10181;48.072;9.884;2023-06-04T12:36:37;22.30;97.20
20041;DHT22;10181;48.072;9.884;2023-06-04T12:39:04;22.40;97.00
20041;DHT22;10181;48.072;9.884;2023-06-04T12:41:33;22.40;96.90
20041;DHT22;10181;48.072;9.884;2023-06-04T12:44:00;22.10;93.70
20041;DHT22;10181;48.072;9.884;2023-06-04T12:46:26;22.10;97.40
20041;DHT22;10181;48.072;9.884;2023-06-04T12:48:53;22.00;97.60
20041;DHT22;10181;48.072;9.884;2023-06-04T12:51:19;21.90;94.80
20041;DHT22;10181;48.072;9.884;2023-06-04T12:53:46;22.00;96.20
20041;DHT22;10181;48.072;9.884;2023-06-04T12:56:13;22.10;93.30
20041;DHT22;10181;48.072;9.884;2023-06-04T12:58:39;22.20;95.20
20041;DHT22;10181;48.072;9.884;2023-06-04T13:01:04;22.30;96.80
20041;DHT22;10181;48.072;9.884;2023-06-04T13:03:31;22.30;97.00
20041;DHT22;10181;48.072;9.884;2023-06-04T13:05:57;22.30;96.20
20041;DHT22;10181;48.072;9.884;2023-06-04T13:08:23;22.30;88.80
20041;DHT22;10181;48.072;9.884;2023-06-04T13:10:52;22.30;94.70
20041;DHT22;10181;48.072;9.884;2023-06-04T13:13:19;22.40;92.80
20041;DHT22;10181;48.072;9.884;2023-06-04T13:15:45;22.50;92.90
20041;DHT22;10181;48.072;9.884;2023-06-04T13:18:11;22.50;89.30
20041;DHT22;10181;48.072;9.884;2023-06-04T13:20:39;22.50;92.90
20041;DHT22;10181;48.072;9.884;2023-06-04T13:23:05;22.60;94.00
20041;DHT22;10181;48.072;9.884;2023-06-04T13:25:31;22.70;87.30
20041;DHT22;10181;48.072;9.884;2023-06-04T13:27:59;22.70;90.30
20041;DHT22;10181;48.072;9.884;2023-06-04T13:30:25;22.90;93.10
20041;DHT22;10181;48.072;9.884;2023-06-04T13:32:52;22.80;93.40
20041;DHT22;10181;48.072;9.884;2023-06-04T13:35:18;22.70;94.70
20041;DHT22;10181;48.072;9.884;2023-06-04T13:37:43;22.50;95.20
20041;DHT22;10181;48.072;9.884;2023-06-04T13:40:09;22.40;94.00
20041;DHT22;10181;48.072;9.884;2023-06-04T13:42:35;22.30;93.60
20041;DHT22;10181;48.072;9.884;2023-06-04T13:45:01;22.30;93.80
20041;DHT22;10181;48.072;9.884;2023-06-04T13:47:27;22.30;93.20
20041;DHT22;10181;48.072;9.884;2023-06-04T13:49:53;22.30;92.20
20041;DHT22;10181;48.072;9.884;2023-06-04T13:52:18;22.50;92.40
20041;DHT22;10181;48.072;9.884;2023-06-04T13:54:44;22.40;93.80
20041;DHT22;10181;48.072;9.884;2023-06-04T13:57:10;22.40;90.70
20041;DHT22;10181;48.072;9.884;2023-06-04T13:59:39;22.20;88.40
20041;DHT22;10181;48.072;9.884;2023-06-04T14:02:05;22.10;93.50
20041;DHT22;10181;48.072;9.884;2023-06-04T14:04:31;22.10;92.70
20041;DHT22;10181;48.072;9.884;2023-06-04T14:06:56;22.20;93.60
20041;DHT22;10181;48.072;9.884;2023-06-04T14:09:22;22.20;91.30
20041;DHT22;10181;48.072;9.884;2023-06-04T14:11:48;22.20;92.20
20041;DHT22;10181;48.072;9.884;2023-06-04T14:14:17;22.20;93.00
20041;DHT22;10181;48.072;9.884;2023-06-04T14:16:44;22.10;91.90
20041;DHT22;10181;48.072;9.884;2023-06-04T14:19:09;22.00;90.50
20041;DHT22;10181;48.072;9.884;2023-06-04T14:21:35;22.00;92.80
20041;DHT22;10181;48.072;9.884;2023-06-04T14:24:01;22.00;93.90
20041;DHT22;10181;48.072;9.884;2023-06-04T14:26:27;22.10;93.50
20041;DHT22;10181;48.072;9.884;2023-06-04T14:28:53;22.20;93.20
20041;DHT22;10181;48.072;9.884;2023-06-04T14:31:18;22.30;92.70
20041;DHT22;10181;48.072;9.884;2023-06-04T14:33:44;22.50;92.80
20041;DHT22;10181;48.072;9.884;2023-06-04T14:36:10;22.60;93.10
20041;DHT22;10181;48.072;9.884;2023-06-04T14:38:35;22.60;90.30
20041;DHT22;10181;48.072;9.884;2023-06-04T14:41:02;22.50;89.60
20041;DHT22;10181;48.072;9.884;2023-06-04T14:43:28;22.40;86.60
20041;DHT22;10181;48.072;9.884;2023-06-04T14:45:54;22.40;89.90
20041;DHT22;10181;48.072;9.884;2023-06-04T14:48:20;22.50;92.40
20041;DHT22;10181;48.072;9.884;2023-06-04T14:50:45;22.60;93.40
20041;DHT22;10181;48.072;9.884;2023-06-04T14:53:12;22.60;92.40
20041;DHT22;10181;48.072;9.884;2023-06-04T14:55:38;22.70;93.00
20041;DHT22;10181;48.072;9.884;2023-06-04T14:58:04;22.60;93.20
20041;DHT22;10181;48.072;9.884;2023-06-04T15:00:30;22.50;93.30
20041;DHT22;10181;48.072;9.884;2023-06-04T15:02:56;22.30;93.80
20041;DHT22;10181;48.072;9.884;2023-06-04T15:05:22;22.10;90.20
20041;DHT22;10181;48.072;9.884;2023-06-04T15:07:47;22.00;93.90
20041;DHT22;10181;48.072;9.884;2023-06-04T15:10:13;21.90;92.80
20041;DHT22;10181;48.072;9.884;2023-06-04T15:12:39;22.00;94.00
20041;DHT22;10181;48.072;9.884;2023-06-04T15:15:06;22.00;93.70
20041;DHT22;10181;48.072;9.884;2023-06-04T15:17:32;22.10;93.90
20041;DHT22;10181;48.072;9.884;2023-06-04T15:19:57;22.20;93.60
20041;DHT22;10181;48.072;9.884;2023-06-04T15:22:24;22.20;92.70
20041;DHT22;10181;48.072;9.884;2023-06-04T15:24:50;22.20;93.20
20041;DHT22;10181;48.072;9.884;2023-06-04T15:27:17;22.10;93.20
20041;DHT22;10181;48.072;9.884;2023-06-04T15:29:43;21.90;94.00
20041;DHT22;10181;48.072;9.884;2023-06-04T15:32:09;21.80;94.20
20041;DHT22;10181;48.072;9.884;2023-06-04T15:34:34;21.80;93.80